sensor_id;sensor_type;location;lat;lon;timestamp;P1;durP1;ratioP1;P2;durP2;ratioP2
21507;SDS011;10915;54.352;9.074;2022-12-04T00:01:00;29.20;;;23.90;;
21507;SDS011;10915;54.352;9.074;2022-12-04T00:03:30;29.20;;;23.08;;
21507;SDS011;10915;54.352;9.074;2022-12-04T00:06:09;28.47;;;21.53;;
21507;SDS011;10915;54.352;9.074;2022-12-04T00:08:46;30.67;;;23.03;;
21507;SDS011;10915;54.352;9.074;2022-12-04T00:11:14;33.00;;;23.77;;
21507;SDS011;10915;54.352;9.074;2022-12-04T00:13:42;31.10;;;22.63;;
21507;SDS011;10915;54.352;9.074;2022-12-04T00:16:10;30.70;;;23.63;;
21507;SDS011;10915;54.352;9.074;2022-12-04T00:18:38;30.60;;;24.40;;
21507;SDS011;10915;54.352;9.074;2022-12-04T00:21:05;33.87;;;25.43;;
21507;SDS011;10915;54.352;9.074;2022-12-04T00:23:36;30.47;;;23.90;;
21507;SDS011;10915;54.352;9.074;2022-12-04T00:26:03;30.67;;;24.83;;
21507;SDS011;10915;54.352;9.074;2022-12-04T00:28:30;33.67;;;25.80;;
21507;SDS011;10915;54.352;9.074;2022-12-04T00:30:57;32.97;;;24.67;;
21507;SDS011;10915;54.352;9.074;2022-12-04T00:33:22;32.37;;;25.07;;
21507;SDS011;10915;54.352;9.074;2022-12-04T00:35:55;38.27;;;25.57;;
21507;SDS011;10915;54.352;9.074;2022-12-04T00:38:24;31.87;;;25.20;;
21507;SDS011;10915;54.352;9.074;2022-12-04T00:40:50;32.53;;;25.00;;
21507;SDS011;10915;54.352;9.074;2022-12-04T00:43:17;35.10;;;27.13;;
21507;SDS011;10915;54.352;9.074;2022-12-04T00:45:43;34.07;;;27.23;;
21507;SDS011;10915;54.352;9.074;2022-12-04T00:48:09;36.17;;;26.03;;
21507;SDS011;10915;54.352;9.074;2022-12-04T00:50:35;31.83;;;25.33;;
21507;SDS011;10915;54.352;9.074;2022-12-04T00:53:01;34.97;;;26.63;;
21507;SDS011;10915;54.352;9.074;2022-12-04T00:55:27;35.30;;;28.90;;
21507;SDS011;10915;54.352;9.074;2022-12-04T00:57:52;39.37;;;28.53;;
21507;SDS011;10915;54.352;9.074;2022-12-04T01:00:18;39.57;;;29.10;;
21507;SDS011;10915;54.352;9.074;2022-12-04T01:02:44;46.43;;;32.90;;
21507;SDS011;10915;54.352;9.074;2022-12-04T01:05:10;45.50;;;34.50;;
21507;SDS011;10915;54.352;9.074;2022-12-04T01:07:36;48.47;;;35.80;;
21507;SDS011;10915;54.352;9.074;2022-12-04T01:10:02;51.27;;;35.83;;
21507;SDS011;10915;54.352;9.074;2022-12-04T01:12:30;49.33;;;35.73;;
21507;SDS011;10915;54.352;9.074;2022-12-04T01:14:55;47.50;;;35.83;;
21507;SDS011;10915;54.352;9.074;2022-12-04T01:17:22;48.07;;;34.27;;
21507;SDS011;10915;54.352;9.074;2022-12-04T01:19:47;47.60;;;36.90;;
21507;SDS011;10915;54.352;9.074;2022-12-04T01:22:13;44.97;;;35.00;;
21507;SDS011;10915;54.352;9.074;2022-12-04T01:24:39;49.77;;;37.70;;
21507;SDS011;10915;54.352;9.074;2022-12-04T01:27:04;51.40;;;38.80;;
21507;SDS011;10915;54.352;9.074;2022-12-04T01:29:30;54.77;;;40.17;;
21507;SDS011;10915;54.352;9.074;2022-12-04T01:31:56;53.13;;;38.93;;
21507;SDS011;10915;54.352;9.074;2022-12-04T01:34:21;53.10;;;40.57;;
21507;SDS011;10915;54.352;9.074;2022-12-04T01:36:49;53.43;;;40.43;;
21507;SDS011;10915;54.352;9.074;2022-12-04T01:39:16;53.73;;;41.23;;
21507;SDS011;10915;54.352;9.074;2022-12-04T01:41:42;51.20;;;41.07;;
21507;SDS011;10915;54.352;9.074;2022-12-04T01:44:20;51.17;;;40.00;;
21507;SDS011;10915;54.352;9.074;2022-12-04T01:46:52;53.47;;;41.87;;
21507;SDS011;10915;54.352;9.074;2022-12-04T01:49:24;56.40;;;41.03;;
21507;SDS011;10915;54.352;9.074;2022-12-04T01:52:00;54.13;;;41.23;;
21507;SDS011;10915;54.352;9.074;2022-12-04T01:54:32;52.53;;;41.93;;
21507;SDS011;10915;54.352;9.074;2022-12-04T01:57:05;56.17;;;41.70;;
21507;SDS011;10915;54.352;9.074;2022-12-04T02:02:25;56.53;;;41.43;;
21507;SDS011;10915;54.352;9.074;2022-12-04T02:04:57;53.90;;;41.33;;
21507;SDS011;10915;54.352;9.074;2022-12-04T02:07:24;55.43;;;41.83;;
21507;SDS011;10915;54.352;9.074;2022-12-04T02:09:50;56.10;;;42.97;;
21507;SDS011;10915;54.352;9.074;2022-12-04T02:17:44;54.70;;;43.37;;
21507;SDS011;10915;54.352;9.074;2022-12-04T02:31:01;53.93;;;41.23;;
21507;SDS011;10915;54.352;9.074;2022-12-04T02:33:30;54.43;;;42.87;;
21507;SDS011;10915;54.352;9.074;2022-12-04T02:36:25;54.27;;;40.93;;
21507;SDS011;10915;54.352;9.074;2022-12-04T02:41:47;54.23;;;41.50;;
21507;SDS011;10915;54.352;9.074;2022-12-04T02:44:31;51.67;;;39.80;;
21507;SDS011;10915;54.352;9.074;2022-12-04T02:47:05;47.47;;;37.37;;
21507;SDS011;10915;54.352;9.074;2022-12-04T02:49:41;45.53;;;35.90;;
21507;SDS011;10915;54.352;9.074;2022-12-04T02:52:14;44.47;;;36.63;;
21507;SDS011;10915;54.352;9.074;2022-12-04T02:54:48;46.10;;;36.40;;
21507;SDS011;10915;54.352;9.074;2022-12-04T02:57:21;46.83;;;37.13;;
21507;SDS011;10915;54.352;9.074;2022-12-04T02:59:51;46.37;;;36.53;;
21507;SDS011;10915;54.352;9.074;2022-12-04T03:02:24;48.60;;;36.03;;
21507;SDS011;10915;54.352;9.074;2022-12-04T03:04:55;45.37;;;36.03;;
21507;SDS011;10915;54.352;9.074;2022-12-04T03:07:35;43.90;;;35.07;;
21507;SDS011;10915;54.352;9.074;2022-12-04T03:10:18;45.30;;;36.17;;
21507;SDS011;10915;54.352;9.074;2022-12-04T03:12:49;42.27;;;34.87;;
21507;SDS011;10915;54.352;9.074;2022-12-04T03:15:29;44.93;;;35.23;;
21507;SDS011;10915;54.352;9.074;2022-12-04T03:18:04;42.67;;;35.23;;
21507;SDS011;10915;54.352;9.074;2022-12-04T03:20:39;44.90;;;35.53;;
21507;SDS011;10915;54.352;9.074;2022-12-04T03:23:13;44.83;;;36.50;;
21507;SDS011;10915;54.352;9.074;2022-12-04T03:25:55;47.10;;;37.63;;
21507;SDS011;10915;54.352;9.074;2022-12-04T03:31:10;46.03;;;36.57;;
21507;SDS011;10915;54.352;9.074;2022-12-04T03:33:39;43.63;;;33.73;;
21507;SDS011;10915;54.352;9.074;2022-12-04T03:36:25;43.30;;;34.87;;
21507;SDS011;10915;54.352;9.074;2022-12-04T03:38:57;42.93;;;34.77;;
21507;SDS011;10915;54.352;9.074;2022-12-04T03:44:21;41.80;;;33.30;;
21507;SDS011;10915;54.352;9.074;2022-12-04T03:47:03;42.67;;;33.47;;
21507;SDS011;10915;54.352;9.074;2022-12-04T03:49:36;41.80;;;33.63;;
21507;SDS011;10915;54.352;9.074;2022-12-04T03:55:02;42.43;;;33.00;;
21507;SDS011;10915;54.352;9.074;2022-12-04T03:57:39;41.07;;;34.00;;
21507;SDS011;10915;54.352;9.074;2022-12-04T04:00:15;42.10;;;33.43;;
21507;SDS011;10915;54.352;9.074;2022-12-04T04:02:46;41.70;;;33.30;;
21507;SDS011;10915;54.352;9.074;2022-12-04T04:05:15;43.13;;;33.53;;
21507;SDS011;10915;54.352;9.074;2022-12-04T04:07:47;41.33;;;33.17;;
21507;SDS011;10915;54.352;9.074;2022-12-04T04:10:20;42.83;;;33.37;;
21507;SDS011;10915;54.352;9.074;2022-12-04T04:12:49;41.70;;;33.47;;
21507;SDS011;10915;54.352;9.074;2022-12-04T04:15:41;44.33;;;34.47;;
21507;SDS011;10915;54.352;9.074;2022-12-04T04:18:30;43.40;;;32.93;;
21507;SDS011;10915;54.352;9.074;2022-12-04T04:21:17;41.47;;;33.07;;
21507;SDS011;10915;54.352;9.074;2022-12-04T04:24:06;42.87;;;33.47;;
21507;SDS011;10915;54.352;9.074;2022-12-04T04:26:50;40.97;;;32.50;;
21507;SDS011;10915;54.352;9.074;2022-12-04T04:29:16;39.30;;;31.63;;
21507;SDS011;10915;54.352;9.074;2022-12-04T04:31:55;39.73;;;32.17;;
21507;SDS011;10915;54.352;9.074;2022-12-04T04:37:15;43.17;;;32.00;;
21507;SDS011;10915;54.352;9.074;2022-12-04T04:48:42;44.17;;;33.67;;
21507;SDS011;10915;54.352;9.074;2022-12-04T04:51:11;44.73;;;34.27;;
21507;SDS011;10915;54.352;9.074;2022-12-04T04:53:39;45.63;;;34.17;;
21507;SDS011;10915;54.352;9.074;2022-12-04T04:56:09;44.43;;;34.10;;
21507;SDS011;10915;54.352;9.074;2022-12-04T04:58:36;46.03;;;34.17;;
21507;SDS011;10915;54.352;9.074;2022-12-04T05:03:30;45.83;;;34.77;;
21507;SDS011;10915;54.352;9.074;2022-12-04T05:05:56;46.13;;;34.67;;
21507;SDS011;10915;54.352;9.074;2022-12-04T05:08:22;49.93;;;35.63;;
21507;SDS011;10915;54.352;9.074;2022-12-04T05:10:48;49.30;;;35.97;;
21507;SDS011;10915;54.352;9.074;2022-12-04T05:13:14;45.00;;;35.37;;
21507;SDS011;10915;54.352;9.074;2022-12-04T05:15:41;48.07;;;34.90;;
21507;SDS011;10915;54.352;9.074;2022-12-04T05:18:07;46.67;;;35.50;;
21507;SDS011;10915;54.352;9.074;2022-12-04T05:20:33;48.57;;;36.20;;
21507;SDS011;10915;54.352;9.074;2022-12-04T05:23:01;49.03;;;36.60;;
21507;SDS011;10915;54.352;9.074;2022-12-04T05:25:27;47.13;;;34.77;;
21507;SDS011;10915;54.352;9.074;2022-12-04T05:27:53;50.00;;;36.03;;
21507;SDS011;10915;54.352;9.074;2022-12-04T05:30:19;52.17;;;37.30;;
21507;SDS011;10915;54.352;9.074;2022-12-04T05:32:45;48.00;;;35.07;;
21507;SDS011;10915;54.352;9.074;2022-12-04T05:35:10;47.30;;;35.57;;
21507;SDS011;10915;54.352;9.074;2022-12-04T05:37:36;48.43;;;36.40;;
21507;SDS011;10915;54.352;9.074;2022-12-04T05:40:04;49.50;;;36.13;;
21507;SDS011;10915;54.352;9.074;2022-12-04T05:42:31;52.27;;;37.50;;
21507;SDS011;10915;54.352;9.074;2022-12-04T05:44:57;51.27;;;37.23;;
21507;SDS011;10915;54.352;9.074;2022-12-04T05:47:23;48.33;;;34.73;;
21507;SDS011;10915;54.352;9.074;2022-12-04T05:49:48;50.67;;;37.73;;
21507;SDS011;10915;54.352;9.074;2022-12-04T05:52:14;51.17;;;36.90;;
21507;SDS011;10915;54.352;9.074;2022-12-04T05:54:40;49.07;;;37.80;;
21507;SDS011;10915;54.352;9.074;2022-12-04T05:57:06;51.93;;;37.13;;
21507;SDS011;10915;54.352;9.074;2022-12-04T05:59:32;52.57;;;38.27;;
21507;SDS011;10915;54.352;9.074;2022-12-04T06:01:58;51.60;;;38.33;;
21507;SDS011;10915;54.352;9.074;2022-12-04T06:04:24;51.77;;;36.83;;
21507;SDS011;10915;54.352;9.074;2022-12-04T06:06:51;54.57;;;39.20;;
21507;SDS011;10915;54.352;9.074;2022-12-04T06:09:18;49.80;;;36.57;;
21507;SDS011;10915;54.352;9.074;2022-12-04T06:11:43;53.13;;;38.57;;
21507;SDS011;10915;54.352;9.074;2022-12-04T06:14:11;51.63;;;37.97;;
21507;SDS011;10915;54.352;9.074;2022-12-04T06:16:40;53.27;;;37.60;;
21507;SDS011;10915;54.352;9.074;2022-12-04T06:19:19;53.53;;;38.20;;
21507;SDS011;10915;54.352;9.074;2022-12-04T06:21:47;57.50;;;38.73;;
21507;SDS011;10915;54.352;9.074;2022-12-04T06:24:17;54.03;;;38.80;;
21507;SDS011;10915;54.352;9.074;2022-12-04T06:26:44;50.20;;;37.67;;
21507;SDS011;10915;54.352;9.074;2022-12-04T06:29:11;52.80;;;37.17;;
21507;SDS011;10915;54.352;9.074;2022-12-04T06:31:38;54.77;;;39.63;;
21507;SDS011;10915;54.352;9.074;2022-12-04T06:34:04;58.30;;;38.20;;
21507;SDS011;10915;54.352;9.074;2022-12-04T06:36:31;53.53;;;38.53;;
21507;SDS011;10915;54.352;9.074;2022-12-04T06:38:57;51.20;;;37.33;;
21507;SDS011;10915;54.352;9.074;2022-12-04T06:41:23;56.50;;;38.27;;
21507;SDS011;10915;54.352;9.074;2022-12-04T06:43:50;55.90;;;39.10;;
21507;SDS011;10915;54.352;9.074;2022-12-04T06:46:20;56.33;;;40.37;;
21507;SDS011;10915;54.352;9.074;2022-12-04T06:48:48;52.00;;;38.33;;
21507;SDS011;10915;54.352;9.074;2022-12-04T06:51:16;58.20;;;41.43;;
21507;SDS011;10915;54.352;9.074;2022-12-04T06:53:46;58.67;;;40.27;;
21507;SDS011;10915;54.352;9.074;2022-12-04T06:56:13;55.87;;;39.77;;
21507;SDS011;10915;54.352;9.074;2022-12-04T06:58:43;56.47;;;40.50;;
21507;SDS011;10915;54.352;9.074;2022-12-04T07:01:10;60.27;;;39.63;;
21507;SDS011;10915;54.352;9.074;2022-12-04T07:03:38;58.47;;;39.80;;
21507;SDS011;10915;54.352;9.074;2022-12-04T07:08:40;57.97;;;40.63;;
21507;SDS011;10915;54.352;9.074;2022-12-04T07:11:06;62.13;;;42.33;;
21507;SDS011;10915;54.352;9.074;2022-12-04T07:13:32;61.10;;;41.07;;
21507;SDS011;10915;54.352;9.074;2022-12-04T07:15:59;56.03;;;40.37;;
21507;SDS011;10915;54.352;9.074;2022-12-04T07:18:25;59.13;;;41.10;;
21507;SDS011;10915;54.352;9.074;2022-12-04T07:20:51;58.93;;;42.03;;
21507;SDS011;10915;54.352;9.074;2022-12-04T07:23:17;60.97;;;40.53;;
21507;SDS011;10915;54.352;9.074;2022-12-04T07:25:44;58.07;;;40.37;;
21507;SDS011;10915;54.352;9.074;2022-12-04T07:28:09;57.73;;;39.47;;
21507;SDS011;10915;54.352;9.074;2022-12-04T07:30:36;58.73;;;40.60;;
21507;SDS011;10915;54.352;9.074;2022-12-04T07:33:02;59.30;;;41.23;;
21507;SDS011;10915;54.352;9.074;2022-12-04T07:35:28;57.17;;;40.27;;
21507;SDS011;10915;54.352;9.074;2022-12-04T07:37:54;57.80;;;40.23;;
21507;SDS011;10915;54.352;9.074;2022-12-04T07:40:20;57.87;;;40.43;;
21507;SDS011;10915;54.352;9.074;2022-12-04T07:42:46;57.83;;;40.03;;
21507;SDS011;10915;54.352;9.074;2022-12-04T07:45:13;61.40;;;41.40;;
21507;SDS011;10915;54.352;9.074;2022-12-04T07:47:39;60.30;;;39.93;;
21507;SDS011;10915;54.352;9.074;2022-12-04T07:50:05;62.37;;;41.90;;
21507;SDS011;10915;54.352;9.074;2022-12-04T07:52:35;62.10;;;41.00;;
21507;SDS011;10915;54.352;9.074;2022-12-04T16:18:46;30.97;;;23.30;;
21507;SDS011;10915;54.352;9.074;2022-12-04T16:21:16;31.30;;;25.00;;
21507;SDS011;10915;54.352;9.074;2022-12-04T16:24:06;30.77;;;25.40;;
21507;SDS011;10915;54.352;9.074;2022-12-04T16:26:34;30.47;;;24.93;;
21507;SDS011;10915;54.352;9.074;2022-12-04T16:29:00;34.10;;;25.57;;
21507;SDS011;10915;54.352;9.074;2022-12-04T16:31:25;30.43;;;25.73;;
21507;SDS011;10915;54.352;9.074;2022-12-04T16:33:51;31.47;;;26.00;;
21507;SDS011;10915;54.352;9.074;2022-12-04T16:36:17;30.13;;;24.83;;
21507;SDS011;10915;54.352;9.074;2022-12-04T16:38:43;28.37;;;23.83;;
21507;SDS011;10915;54.352;9.074;2022-12-04T16:41:11;30.80;;;24.47;;
21507;SDS011;10915;54.352;9.074;2022-12-04T16:43:39;28.63;;;24.67;;
21507;SDS011;10915;54.352;9.074;2022-12-04T16:46:04;27.33;;;23.57;;
21507;SDS011;10915;54.352;9.074;2022-12-04T16:48:30;31.07;;;24.37;;
21507;SDS011;10915;54.352;9.074;2022-12-04T16:50:58;28.10;;;24.47;;
21507;SDS011;10915;54.352;9.074;2022-12-04T16:53:24;29.17;;;23.73;;
21507;SDS011;10915;54.352;9.074;2022-12-04T16:55:51;29.07;;;23.73;;
21507;SDS011;10915;54.352;9.074;2022-12-04T16:58:17;30.37;;;24.93;;
21507;SDS011;10915;54.352;9.074;2022-12-04T17:00:51;29.27;;;23.67;;
21507;SDS011;10915;54.352;9.074;2022-12-04T17:03:25;28.77;;;23.30;;
21507;SDS011;10915;54.352;9.074;2022-12-04T17:05:53;27.30;;;22.17;;
21507;SDS011;10915;54.352;9.074;2022-12-04T17:08:19;27.73;;;22.33;;
21507;SDS011;10915;54.352;9.074;2022-12-04T17:10:45;29.20;;;23.17;;
21507;SDS011;10915;54.352;9.074;2022-12-04T17:13:11;27.10;;;23.00;;
21507;SDS011;10915;54.352;9.074;2022-12-04T17:15:37;28.47;;;22.67;;
21507;SDS011;10915;54.352;9.074;2022-12-04T17:18:03;25.53;;;21.03;;
21507;SDS011;10915;54.352;9.074;2022-12-04T17:20:28;28.77;;;22.50;;
21507;SDS011;10915;54.352;9.074;2022-12-04T17:22:55;28.47;;;22.83;;
21507;SDS011;10915;54.352;9.074;2022-12-04T17:25:22;26.37;;;20.13;;
21507;SDS011;10915;54.352;9.074;2022-12-04T17:27:48;24.40;;;20.50;;
21507;SDS011;10915;54.352;9.074;2022-12-04T17:30:14;26.67;;;20.17;;
21507;SDS011;10915;54.352;9.074;2022-12-04T17:32:40;26.07;;;20.77;;
21507;SDS011;10915;54.352;9.074;2022-12-04T17:35:07;24.23;;;19.57;;
21507;SDS011;10915;54.352;9.074;2022-12-04T17:37:35;25.87;;;20.23;;
21507;SDS011;10915;54.352;9.074;2022-12-04T17:40:02;23.33;;;19.07;;
21507;SDS011;10915;54.352;9.074;2022-12-04T17:42:29;23.53;;;19.27;;
21507;SDS011;10915;54.352;9.074;2022-12-04T17:44:56;26.97;;;18.67;;
21507;SDS011;10915;54.352;9.074;2022-12-04T17:47:22;24.20;;;18.57;;
21507;SDS011;10915;54.352;9.074;2022-12-04T17:49:48;24.00;;;19.13;;
21507;SDS011;10915;54.352;9.074;2022-12-04T17:52:13;21.17;;;18.67;;
21507;SDS011;10915;54.352;9.074;2022-12-04T17:54:39;20.27;;;17.57;;
21507;SDS011;10915;54.352;9.074;2022-12-04T17:57:05;23.53;;;18.07;;
21507;SDS011;10915;54.352;9.074;2022-12-04T17:59:31;21.20;;;17.47;;
21507;SDS011;10915;54.352;9.074;2022-12-04T18:01:56;23.80;;;18.70;;
21507;SDS011;10915;54.352;9.074;2022-12-04T18:04:22;24.50;;;19.43;;
21507;SDS011;10915;54.352;9.074;2022-12-04T18:06:49;25.90;;;19.07;;
21507;SDS011;10915;54.352;9.074;2022-12-04T18:09:15;24.67;;;19.23;;
21507;SDS011;10915;54.352;9.074;2022-12-04T18:11:42;24.37;;;20.03;;
21507;SDS011;10915;54.352;9.074;2022-12-04T18:14:10;20.63;;;16.43;;
21507;SDS011;10915;54.352;9.074;2022-12-04T18:16:39;24.63;;;20.03;;
21507;SDS011;10915;54.352;9.074;2022-12-04T18:19:07;24.20;;;20.57;;
21507;SDS011;10915;54.352;9.074;2022-12-04T18:21:33;27.07;;;21.23;;
21507;SDS011;10915;54.352;9.074;2022-12-04T18:24:00;25.47;;;20.23;;
21507;SDS011;10915;54.352;9.074;2022-12-04T18:26:30;24.80;;;21.10;;
21507;SDS011;10915;54.352;9.074;2022-12-04T18:28:57;27.40;;;21.87;;
21507;SDS011;10915;54.352;9.074;2022-12-04T18:31:23;28.00;;;22.63;;
21507;SDS011;10915;54.352;9.074;2022-12-04T18:33:49;27.17;;;21.90;;
21507;SDS011;10915;54.352;9.074;2022-12-04T18:36:16;33.23;;;23.33;;
21507;SDS011;10915;54.352;9.074;2022-12-04T18:38:43;28.83;;;23.60;;
21507;SDS011;10915;54.352;9.074;2022-12-04T18:41:10;31.93;;;23.93;;
21507;SDS011;10915;54.352;9.074;2022-12-04T18:43:41;29.77;;;24.10;;
21507;SDS011;10915;54.352;9.074;2022-12-04T18:46:09;31.07;;;24.70;;
21507;SDS011;10915;54.352;9.074;2022-12-04T18:48:38;32.73;;;24.90;;
21507;SDS011;10915;54.352;9.074;2022-12-04T18:53:41;30.90;;;25.53;;
21507;SDS011;10915;54.352;9.074;2022-12-04T18:56:08;32.73;;;26.17;;
21507;SDS011;10915;54.352;9.074;2022-12-04T18:58:33;32.47;;;25.57;;
21507;SDS011;10915;54.352;9.074;2022-12-04T19:01:03;34.53;;;26.10;;
21507;SDS011;10915;54.352;9.074;2022-12-04T19:03:30;29.63;;;24.77;;
21507;SDS011;10915;54.352;9.074;2022-12-04T19:05:56;31.47;;;26.07;;
21507;SDS011;10915;54.352;9.074;2022-12-04T19:08:22;30.97;;;25.60;;
21507;SDS011;10915;54.352;9.074;2022-12-04T19:10:48;32.97;;;27.30;;
21507;SDS011;10915;54.352;9.074;2022-12-04T19:13:13;32.27;;;26.07;;
21507;SDS011;10915;54.352;9.074;2022-12-04T19:15:40;33.90;;;25.83;;
21507;SDS011;10915;54.352;9.074;2022-12-04T19:18:11;29.73;;;24.10;;
21507;SDS011;10915;54.352;9.074;2022-12-04T19:20:38;30.43;;;24.73;;
21507;SDS011;10915;54.352;9.074;2022-12-04T19:23:08;27.90;;;22.43;;
21507;SDS011;10915;54.352;9.074;2022-12-04T19:25:34;28.70;;;24.10;;
21507;SDS011;10915;54.352;9.074;2022-12-04T19:28:01;29.70;;;23.80;;
21507;SDS011;10915;54.352;9.074;2022-12-04T19:30:27;27.80;;;23.40;;
21507;SDS011;10915;54.352;9.074;2022-12-04T19:32:53;28.13;;;23.83;;
21507;SDS011;10915;54.352;9.074;2022-12-04T19:35:18;30.37;;;22.97;;
21507;SDS011;10915;54.352;9.074;2022-12-04T19:37:45;30.50;;;23.47;;
21507;SDS011;10915;54.352;9.074;2022-12-04T19:40:10;32.90;;;25.30;;
21507;SDS011;10915;54.352;9.074;2022-12-04T19:42:37;33.90;;;25.23;;
21507;SDS011;10915;54.352;9.074;2022-12-04T19:45:03;29.83;;;24.93;;
21507;SDS011;10915;54.352;9.074;2022-12-04T19:47:30;29.93;;;24.23;;
21507;SDS011;10915;54.352;9.074;2022-12-04T19:49:56;29.00;;;24.50;;
21507;SDS011;10915;54.352;9.074;2022-12-04T19:52:22;33.30;;;24.83;;
21507;SDS011;10915;54.352;9.074;2022-12-04T19:54:47;28.20;;;23.67;;
21507;SDS011;10915;54.352;9.074;2022-12-04T19:57:13;28.20;;;24.63;;
21507;SDS011;10915;54.352;9.074;2022-12-04T19:59:39;32.87;;;24.67;;
21507;SDS011;10915;54.352;9.074;2022-12-04T20:02:05;29.17;;;23.97;;
21507;SDS011;10915;54.352;9.074;2022-12-04T20:04:33;30.37;;;24.47;;
21507;SDS011;10915;54.352;9.074;2022-12-04T20:06:58;30.87;;;25.37;;
21507;SDS011;10915;54.352;9.074;2022-12-04T20:09:24;30.00;;;25.00;;
21507;SDS011;10915;54.352;9.074;2022-12-04T20:11:51;32.60;;;26.53;;
21507;SDS011;10915;54.352;9.074;2022-12-04T20:14:17;30.47;;;25.70;;
21507;SDS011;10915;54.352;9.074;2022-12-04T20:16:43;33.00;;;24.83;;
21507;SDS011;10915;54.352;9.074;2022-12-04T20:19:11;30.60;;;24.77;;
21507;SDS011;10915;54.352;9.074;2022-12-04T20:21:39;28.50;;;25.30;;
21507;SDS011;10915;54.352;9.074;2022-12-04T20:24:05;28.23;;;23.53;;
21507;SDS011;10915;54.352;9.074;2022-12-04T20:26:33;30.03;;;23.10;;
21507;SDS011;10915;54.352;9.074;2022-12-04T20:29:03;27.87;;;23.83;;
21507;SDS011;10915;54.352;9.074;2022-12-04T20:31:31;30.20;;;23.60;;
21507;SDS011;10915;54.352;9.074;2022-12-04T20:33:59;29.87;;;24.90;;
21507;SDS011;10915;54.352;9.074;2022-12-04T20:36:26;28.47;;;23.13;;
21507;SDS011;10915;54.352;9.074;2022-12-04T20:38:54;29.40;;;23.37;;
21507;SDS011;10915;54.352;9.074;2022-12-04T20:41:25;26.67;;;23.13;;
21507;SDS011;10915;54.352;9.074;2022-12-04T20:43:52;26.70;;;22.53;;
21507;SDS011;10915;54.352;9.074;2022-12-04T20:46:19;26.77;;;21.23;;
21507;SDS011;10915;54.352;9.074;2022-12-04T20:48:50;24.83;;;20.97;;
21507;SDS011;10915;54.352;9.074;2022-12-04T20:53:45;24.60;;;21.07;;
21507;SDS011;10915;54.352;9.074;2022-12-04T20:56:12;25.73;;;21.03;;
21507;SDS011;10915;54.352;9.074;2022-12-04T20:58:38;25.27;;;20.63;;
21507;SDS011;10915;54.352;9.074;2022-12-04T21:01:05;26.17;;;21.03;;
21507;SDS011;10915;54.352;9.074;2022-12-04T21:03:38;26.60;;;22.90;;
21507;SDS011;10915;54.352;9.074;2022-12-04T21:06:09;28.50;;;22.03;;
21507;SDS011;10915;54.352;9.074;2022-12-04T21:08:40;29.17;;;23.53;;
21507;SDS011;10915;54.352;9.074;2022-12-04T21:11:31;27.80;;;24.10;;
21507;SDS011;10915;54.352;9.074;2022-12-04T21:14:03;27.33;;;22.73;;
21507;SDS011;10915;54.352;9.074;2022-12-04T21:16:54;27.60;;;23.80;;
21507;SDS011;10915;54.352;9.074;2022-12-04T21:19:20;32.30;;;25.23;;
21507;SDS011;10915;54.352;9.074;2022-12-04T21:21:46;30.07;;;26.10;;
21507;SDS011;10915;54.352;9.074;2022-12-04T21:24:13;30.83;;;26.20;;
21507;SDS011;10915;54.352;9.074;2022-12-04T21:26:40;30.67;;;24.60;;
21507;SDS011;10915;54.352;9.074;2022-12-04T21:29:07;28.63;;;25.43;;
21507;SDS011;10915;54.352;9.074;2022-12-04T21:31:33;27.83;;;24.60;;
21507;SDS011;10915;54.352;9.074;2022-12-04T21:34:02;30.53;;;25.57;;
21507;SDS011;10915;54.352;9.074;2022-12-04T21:36:29;29.20;;;23.77;;
21507;SDS011;10915;54.352;9.074;2022-12-04T21:38:55;29.93;;;24.77;;
21507;SDS011;10915;54.352;9.074;2022-12-04T21:41:21;28.47;;;23.40;;
21507;SDS011;10915;54.352;9.074;2022-12-04T21:44:14;30.73;;;25.23;;
21507;SDS011;10915;54.352;9.074;2022-12-04T21:46:42;30.13;;;23.83;;
21507;SDS011;10915;54.352;9.074;2022-12-04T21:49:08;27.87;;;23.97;;
21507;SDS011;10915;54.352;9.074;2022-12-04T21:51:35;26.80;;;22.50;;
21507;SDS011;10915;54.352;9.074;2022-12-04T21:54:01;26.03;;;22.87;;
21507;SDS011;10915;54.352;9.074;2022-12-04T21:56:27;28.60;;;23.63;;
21507;SDS011;10915;54.352;9.074;2022-12-04T21:58:53;28.13;;;23.10;;
21507;SDS011;10915;54.352;9.074;2022-12-04T22:01:19;27.77;;;22.57;;
21507;SDS011;10915;54.352;9.074;2022-12-04T22:03:46;25.27;;;22.33;;
21507;SDS011;10915;54.352;9.074;2022-12-04T22:06:12;26.23;;;22.13;;
21507;SDS011;10915;54.352;9.074;2022-12-04T22:08:39;24.57;;;20.70;;
21507;SDS011;10915;54.352;9.074;2022-12-04T22:11:08;23.87;;;19.10;;
21507;SDS011;10915;54.352;9.074;2022-12-04T22:13:35;22.10;;;19.57;;
21507;SDS011;10915;54.352;9.074;2022-12-04T22:16:02;21.90;;;19.30;;
21507;SDS011;10915;54.352;9.074;2022-12-04T22:18:29;20.47;;;18.37;;
21507;SDS011;10915;54.352;9.074;2022-12-04T22:20:56;21.83;;;18.77;;
21507;SDS011;10915;54.352;9.074;2022-12-04T22:23:21;20.93;;;17.93;;
21507;SDS011;10915;54.352;9.074;2022-12-04T22:25:47;21.13;;;17.90;;
21507;SDS011;10915;54.352;9.074;2022-12-04T22:28:13;18.70;;;16.57;;
21507;SDS011;10915;54.352;9.074;2022-12-04T22:30:38;20.47;;;17.77;;
21507;SDS011;10915;54.352;9.074;2022-12-04T22:33:04;19.27;;;17.17;;
21507;SDS011;10915;54.352;9.074;2022-12-04T22:35:31;18.80;;;16.80;;
21507;SDS011;10915;54.352;9.074;2022-12-04T22:37:57;19.70;;;16.63;;
21507;SDS011;10915;54.352;9.074;2022-12-04T22:40:23;16.90;;;15.03;;
21507;SDS011;10915;54.352;9.074;2022-12-04T22:42:48;16.97;;;15.17;;
21507;SDS011;10915;54.352;9.074;2022-12-04T22:45:14;18.58;;;16.60;;
21507;SDS011;10915;54.352;9.074;2022-12-04T22:47:40;16.60;;;14.70;;
21507;SDS011;10915;54.352;9.074;2022-12-04T22:50:06;15.73;;;14.07;;
21507;SDS011;10915;54.352;9.074;2022-12-04T22:52:33;15.73;;;13.87;;
21507;SDS011;10915;54.352;9.074;2022-12-04T22:54:58;15.40;;;13.30;;
21507;SDS011;10915;54.352;9.074;2022-12-04T22:57:24;14.13;;;12.63;;
21507;SDS011;10915;54.352;9.074;2022-12-04T22:59:50;15.35;;;13.07;;
21507;SDS011;10915;54.352;9.074;2022-12-04T23:02:16;15.63;;;12.50;;
21507;SDS011;10915;54.352;9.074;2022-12-04T23:04:42;18.37;;;12.97;;
21507;SDS011;10915;54.352;9.074;2022-12-04T23:27:33;21.90;;;17.13;;
21507;SDS011;10915;54.352;9.074;2022-12-04T23:31:02;19.92;;;17.58;;
21507;SDS011;10915;54.352;9.074;2022-12-04T23:33:33;20.83;;;18.00;;
21507;SDS011;10915;54.352;9.074;2022-12-04T23:36:02;18.17;;;15.57;;
21507;SDS011;10915;54.352;9.074;2022-12-04T23:38:33;20.53;;;17.03;;
21507;SDS011;10915;54.352;9.074;2022-12-04T23:41:03;20.00;;;17.50;;
21507;SDS011;10915;54.352;9.074;2022-12-04T23:43:53;21.10;;;17.23;;
21507;SDS011;10915;54.352;9.074;2022-12-04T23:46:27;19.30;;;16.97;;
21507;SDS011;10915;54.352;9.074;2022-12-04T23:49:29;19.70;;;17.30;;
21507;SDS011;10915;54.352;9.074;2022-12-04T23:51:55;23.27;;;18.27;;
21507;SDS011;10915;54.352;9.074;2022-12-04T23:54:20;22.17;;;17.50;;
21507;SDS011;10915;54.352;9.074;2022-12-04T23:56:46;22.37;;;19.97;;
21507;SDS011;10915;54.352;9.074;2022-12-04T23:59:14;22.37;;;19.47;;
